sensor_id;sensor_type;location;lat;lon;timestamp;pressure;altitude;pressure_sealevel;temperature;humidity
2214;BME280;1113;42.018;23.986;2023-02-15T00:01:05;93747.63;;;-4.08;100.00
2214;BME280;1113;42.018;23.986;2023-02-15T00:03:31;93741.25;;;-3.91;100.00
2214;BME280;1113;42.018;23.986;2023-02-15T00:05:58;93743.59;;;-3.83;100.00
2214;BME280;1113;42.018;23.986;2023-02-15T00:08:25;93739.09;;;-4.00;100.00
2214;BME280;1113;42.018;23.986;2023-02-15T00:10:52;93733.44;;;-4.16;100.00
2214;BME280;1113;42.018;23.986;2023-02-15T00:13:20;93731.44;;;-4.27;100.00
2214;BME280;1113;42.018;23.986;2023-02-15T00:15:47;93750.44;;;-4.24;100.00
2214;BME280;1113;42.018;23.986;2023-02-15T00:18:14;93765.34;;;-4.29;100.00
2214;BME280;1113;42.018;23.986;2023-02-15T00:20:40;93761.69;;;-4.27;100.00
2214;BME280;1113;42.018;23.986;2023-02-15T00:23:07;93766.53;;;-4.25;100.00
2214;BME280;1113;42.018;23.986;2023-02-15T00:25:34;93758.19;;;-4.26;100.00
2214;BME280;1113;42.018;23.986;2023-02-15T00:28:01;93760.13;;;-4.21;100.00
2214;BME280;1113;42.018;23.986;2023-02-15T00:30:29;93757.75;;;-4.36;100.00
2214;BME280;1113;42.018;23.986;2023-02-15T00:32:56;93757.75;;;-4.36;100.00
2214;BME280;1113;42.018;23.986;2023-02-15T00:35:22;93754.69;;;-4.31;100.00
2214;BME280;1113;42.018;23.986;2023-02-15T00:37:49;93746.13;;;-4.37;100.00
2214;BME280;1113;42.018;23.986;2023-02-15T00:40:17;93744.38;;;-4.43;100.00
2214;BME280;1113;42.018;23.986;2023-02-15T00:42:44;93745.50;;;-4.52;100.00
2214;BME280;1113;42.018;23.986;2023-02-15T00:45:11;93760.41;;;-4.51;100.00
2214;BME280;1113;42.018;23.986;2023-02-15T00:47:39;93748.25;;;-4.40;100.00
2214;BME280;1113;42.018;23.986;2023-02-15T00:50:06;93750.56;;;-4.46;100.00
2214;BME280;1113;42.018;23.986;2023-02-15T00:52:33;93744.38;;;-4.43;100.00
2214;BME280;1113;42.018;23.986;2023-02-15T00:55:00;93755.22;;;-4.42;100.00
2214;BME280;1113;42.018;23.986;2023-02-15T00:57:27;93752.34;;;-4.33;100.00
2214;BME280;1113;42.018;23.986;2023-02-15T00:59:54;93751.53;;;-4.40;100.00
2214;BME280;1113;42.018;23.986;2023-02-15T01:02:20;93747.28;;;-4.39;100.00
2214;BME280;1113;42.018;23.986;2023-02-15T01:04:48;93746.69;;;-4.41;100.00
2214;BME280;1113;42.018;23.986;2023-02-15T01:07:15;93751.66;;;-4.61;100.00
2214;BME280;1113;42.018;23.986;2023-02-15T01:09:42;93760.75;;;-4.60;100.00
2214;BME280;1113;42.018;23.986;2023-02-15T01:12:09;93755.63;;;-4.39;100.00
2214;BME280;1113;42.018;23.986;2023-02-15T01:14:36;93759.28;;;-4.41;100.00
2214;BME280;1113;42.018;23.986;2023-02-15T01:17:02;93747.53;;;-4.69;100.00
2214;BME280;1113;42.018;23.986;2023-02-15T01:19:29;93745.78;;;-4.68;100.00
2214;BME280;1113;42.018;23.986;2023-02-15T01:21:57;93753.53;;;-4.70;100.00
2214;BME280;1113;42.018;23.986;2023-02-15T01:24:24;93747.00;;;-4.64;100.00
2214;BME280;1113;42.018;23.986;2023-02-15T01:26:51;93747.19;;;-4.59;100.00
2214;BME280;1113;42.018;23.986;2023-02-15T01:29:18;93731.69;;;-4.63;100.00
2214;BME280;1113;42.018;23.986;2023-02-15T01:31:45;93741.00;;;-4.57;100.00
2214;BME280;1113;42.018;23.986;2023-02-15T01:34:12;93735.59;;;-4.54;100.00
2214;BME280;1113;42.018;23.986;2023-02-15T01:36:38;93734.94;;;-4.21;100.00
2214;BME280;1113;42.018;23.986;2023-02-15T01:39:06;93730.19;;;-4.51;100.00
2214;BME280;1113;42.018;23.986;2023-02-15T01:41:35;93736.91;;;-4.64;100.00
2214;BME280;1113;42.018;23.986;2023-02-15T01:44:03;93735.16;;;-4.64;100.00
2214;BME280;1113;42.018;23.986;2023-02-15T01:46:34;93730.03;;;-4.42;100.00
2214;BME280;1113;42.018;23.986;2023-02-15T01:49:08;93743.63;;;-4.71;100.00
2214;BME280;1113;42.018;23.986;2023-02-15T01:51:37;93727.81;;;-4.65;100.00
2214;BME280;1113;42.018;23.986;2023-02-15T01:54:11;93741.69;;;-4.69;100.00
2214;BME280;1113;42.018;23.986;2023-02-15T01:56:40;93739.81;;;-4.67;100.00
2214;BME280;1113;42.018;23.986;2023-02-15T01:59:11;93742.53;;;-4.62;100.00
2214;BME280;1113;42.018;23.986;2023-02-15T02:01:41;93747.00;;;-4.64;100.00
2214;BME280;1113;42.018;23.986;2023-02-15T02:04:13;93744.72;;;-4.53;100.00
2214;BME280;1113;42.018;23.986;2023-02-15T02:06:44;93727.66;;;-4.51;100.00
2214;BME280;1113;42.018;23.986;2023-02-15T02:09:14;93739.63;;;-4.66;100.00
2214;BME280;1113;42.018;23.986;2023-02-15T02:11:42;93736.44;;;-4.74;100.00
2214;BME280;1113;42.018;23.986;2023-02-15T02:14:11;93733.16;;;-4.75;100.00
2214;BME280;1113;42.018;23.986;2023-02-15T02:16:45;93735.44;;;-4.80;100.00
2214;BME280;1113;42.018;23.986;2023-02-15T02:19:46;93736.56;;;-4.55;100.00
2214;BME280;1113;42.018;23.986;2023-02-15T02:25:38;93757.38;;;-4.74;100.00
2214;BME280;1113;42.018;23.986;2023-02-15T02:28:23;93759.69;;;-4.72;100.00
2214;BME280;1113;42.018;23.986;2023-02-15T02:31:29;93762.63;;;-4.69;100.00
2214;BME280;1113;42.018;23.986;2023-02-15T02:34:05;93769.28;;;-4.89;100.00
2214;BME280;1113;42.018;23.986;2023-02-15T02:36:41;93771.03;;;-4.90;100.00
2214;BME280;1113;42.018;23.986;2023-02-15T02:39:22;93769.78;;;-4.72;100.00
2214;BME280;1113;42.018;23.986;2023-02-15T02:41:56;93767.78;;;-4.84;100.00
2214;BME280;1113;42.018;23.986;2023-02-15T02:44:27;93766.31;;;-4.99;100.00
2214;BME280;1113;42.018;23.986;2023-02-15T02:46:59;93771.00;;;-4.96;100.00
2214;BME280;1113;42.018;23.986;2023-02-15T02:49:36;93764.63;;;-4.92;100.00
2214;BME280;1113;42.018;23.986;2023-02-15T02:52:06;93759.41;;;-4.91;100.00
2214;BME280;1113;42.018;23.986;2023-02-15T02:54:35;93761.06;;;-4.70;100.00
2214;BME280;1113;42.018;23.986;2023-02-15T02:57:05;93772.69;;;-5.03;100.00
2214;BME280;1113;42.018;23.986;2023-02-15T02:59:36;93773.38;;;-5.16;100.00
2214;BME280;1113;42.018;23.986;2023-02-15T03:02:08;93773.19;;;-5.15;100.00
2214;BME280;1113;42.018;23.986;2023-02-15T03:04:41;93776.13;;;-5.11;100.00
2214;BME280;1113;42.018;23.986;2023-02-15T03:07:13;93779.06;;;-5.07;100.00
2214;BME280;1113;42.018;23.986;2023-02-15T03:09:42;93779.88;;;-5.00;100.00
2214;BME280;1113;42.018;23.986;2023-02-15T03:12:14;93778.44;;;-5.10;100.00
2214;BME280;1113;42.018;23.986;2023-02-15T03:14:44;93767.66;;;-5.03;100.00
2214;BME280;1113;42.018;23.986;2023-02-15T03:17:14;93766.59;;;-5.16;100.00
2214;BME280;1113;42.018;23.986;2023-02-15T03:19:45;93769.50;;;-5.19;100.00
2214;BME280;1113;42.018;23.986;2023-02-15T03:22:17;93777.22;;;-5.20;100.00
2214;BME280;1113;42.018;23.986;2023-02-15T03:24:50;93779.56;;;-5.19;100.00
2214;BME280;1113;42.018;23.986;2023-02-15T03:27:22;93784.09;;;-5.07;100.00
2214;BME280;1113;42.018;23.986;2023-02-15T03:29:54;93786.84;;;-5.24;100.00
2214;BME280;1113;42.018;23.986;2023-02-15T03:32:24;93780.63;;;-5.28;100.00
2214;BME280;1113;42.018;23.986;2023-02-15T03:34:53;93773.25;;;-5.08;100.00
2214;BME280;1113;42.018;23.986;2023-02-15T03:37:25;93771.50;;;-5.07;100.00
2214;BME280;1113;42.018;23.986;2023-02-15T03:39:55;93772.00;;;-5.19;100.00
2214;BME280;1113;42.018;23.986;2023-02-15T03:42:45;93785.69;;;-5.00;100.00
2214;BME280;1113;42.018;23.986;2023-02-15T03:45:15;93786.97;;;-5.11;100.00
2214;BME280;1113;42.018;23.986;2023-02-15T03:47:47;93789.44;;;-5.17;100.00
2214;BME280;1113;42.018;23.986;2023-02-15T03:50:20;93793.78;;;-5.04;100.00
2214;BME280;1113;42.018;23.986;2023-02-15T03:53:10;93788.75;;;-5.26;100.00
2214;BME280;1113;42.018;23.986;2023-02-15T03:55:38;93799.31;;;-5.16;100.00
2214;BME280;1113;42.018;23.986;2023-02-15T03:58:05;93784.75;;;-5.42;100.00
2214;BME280;1113;42.018;23.986;2023-02-15T04:00:56;93791.75;;;-5.16;100.00
2214;BME280;1113;42.018;23.986;2023-02-15T04:03:43;93799.78;;;-5.48;100.00
2214;BME280;1113;42.018;23.986;2023-02-15T04:06:13;93804.41;;;-5.52;100.00
2214;BME280;1113;42.018;23.986;2023-02-15T04:08:40;93801.28;;;-5.54;100.00
2214;BME280;1113;42.018;23.986;2023-02-15T04:11:24;93804.47;;;-5.45;100.00
2214;BME280;1113;42.018;23.986;2023-02-15T04:13:51;93804.47;;;-5.45;100.00
2214;BME280;1113;42.018;23.986;2023-02-15T04:16:21;93800.78;;;-5.21;100.00
2214;BME280;1113;42.018;23.986;2023-02-15T04:18:47;93800.75;;;-5.49;100.00
2214;BME280;1113;42.018;23.986;2023-02-15T04:21:34;93801.47;;;-5.55;100.00
2214;BME280;1113;42.018;23.986;2023-02-15T04:24:22;93803.94;;;-5.62;100.00
2214;BME280;1113;42.018;23.986;2023-02-15T04:27:06;93814.75;;;-5.40;100.00
2214;BME280;1113;42.018;23.986;2023-02-15T04:29:33;93806.75;;;-5.72;100.00
2214;BME280;1113;42.018;23.986;2023-02-15T04:32:00;93814.00;;;-5.41;100.00
2214;BME280;1113;42.018;23.986;2023-02-15T04:34:30;93810.28;;;-5.45;100.00
2214;BME280;1113;42.018;23.986;2023-02-15T04:36:58;93814.59;;;-5.60;100.00
2214;BME280;1113;42.018;23.986;2023-02-15T04:39:25;93811.78;;;-5.72;100.00
2214;BME280;1113;42.018;23.986;2023-02-15T04:41:52;93822.44;;;-5.69;100.00
2214;BME280;1113;42.018;23.986;2023-02-15T04:44:19;93826.50;;;-5.68;100.00
2214;BME280;1113;42.018;23.986;2023-02-15T04:46:45;93824.03;;;-5.62;100.00
2214;BME280;1113;42.018;23.986;2023-02-15T04:49:12;93826.63;;;-5.55;100.00
2214;BME280;1113;42.018;23.986;2023-02-15T04:51:39;93833.88;;;-5.67;100.00
2214;BME280;1113;42.018;23.986;2023-02-15T04:54:07;93828.75;;;-5.74;100.00
2214;BME280;1113;42.018;23.986;2023-02-15T04:56:34;93826.06;;;-5.72;100.00
2214;BME280;1113;42.018;23.986;2023-02-15T04:59:03;93826.38;;;-5.60;100.00
2214;BME280;1113;42.018;23.986;2023-02-15T05:01:29;93831.28;;;-5.52;100.00
2214;BME280;1113;42.018;23.986;2023-02-15T05:03:56;93840.53;;;-5.74;100.00
2214;BME280;1113;42.018;23.986;2023-02-15T05:06:23;93834.47;;;-5.80;100.00
2214;BME280;1113;42.018;23.986;2023-02-15T05:08:50;93841.59;;;-5.68;100.00
2214;BME280;1113;42.018;23.986;2023-02-15T05:11:18;93845.72;;;-5.76;100.00
2214;BME280;1113;42.018;23.986;2023-02-15T05:13:45;93850.94;;;-5.62;100.00
2214;BME280;1113;42.018;23.986;2023-02-15T05:16:11;93848.00;;;-5.81;100.00
2214;BME280;1113;42.018;23.986;2023-02-15T05:18:38;93847.56;;;-5.84;100.00
2214;BME280;1113;42.018;23.986;2023-02-15T05:21:05;93865.59;;;-5.81;100.00
2214;BME280;1113;42.018;23.986;2023-02-15T05:23:32;93874.63;;;-5.86;100.00
2214;BME280;1113;42.018;23.986;2023-02-15T05:25:58;93882.41;;;-5.81;100.00
2214;BME280;1113;42.018;23.986;2023-02-15T05:28:44;93875.19;;;-5.91;100.00
2214;BME280;1113;42.018;23.986;2023-02-15T05:31:12;93889.69;;;-5.86;100.00
2214;BME280;1113;42.018;23.986;2023-02-15T05:33:40;93896.97;;;-5.62;100.00
2214;BME280;1113;42.018;23.986;2023-02-15T05:36:08;93894.44;;;-5.77;100.00
2214;BME280;1113;42.018;23.986;2023-02-15T05:38:35;93894.84;;;-5.94;100.00
2214;BME280;1113;42.018;23.986;2023-02-15T05:41:03;93898.75;;;-5.92;100.00
2214;BME280;1113;42.018;23.986;2023-02-15T05:43:29;93889.53;;;-5.70;100.00
2214;BME280;1113;42.018;23.986;2023-02-15T05:45:58;93885.78;;;-5.59;100.00
2214;BME280;1113;42.018;23.986;2023-02-15T05:48:26;93884.50;;;-5.85;100.00
2214;BME280;1113;42.018;23.986;2023-02-15T05:51:00;93886.22;;;-5.85;100.00
2214;BME280;1113;42.018;23.986;2023-02-15T05:53:27;93883.25;;;-5.74;100.00
2214;BME280;1113;42.018;23.986;2023-02-15T05:55:54;93891.69;;;-5.67;100.00
2214;BME280;1113;42.018;23.986;2023-02-15T05:58:26;93887.34;;;-5.58;100.00
2214;BME280;1113;42.018;23.986;2023-02-15T06:00:58;93890.50;;;-5.50;100.00
2214;BME280;1113;42.018;23.986;2023-02-15T06:03:25;93894.28;;;-5.39;100.00
2214;BME280;1113;42.018;23.986;2023-02-15T06:05:53;93902.16;;;-5.27;100.00
2214;BME280;1113;42.018;23.986;2023-02-15T06:08:20;93908.97;;;-5.21;100.00
2214;BME280;1113;42.018;23.986;2023-02-15T06:10:47;93911.22;;;-5.12;100.00
2214;BME280;1113;42.018;23.986;2023-02-15T06:13:14;93910.34;;;-5.04;100.00
2214;BME280;1113;42.018;23.986;2023-02-15T06:15:41;93916.84;;;-4.88;100.00
2214;BME280;1113;42.018;23.986;2023-02-15T06:18:09;93916.91;;;-4.82;100.00
2214;BME280;1113;42.018;23.986;2023-02-15T06:20:36;93914.09;;;-4.72;100.00
2214;BME280;1113;42.018;23.986;2023-02-15T06:23:02;93923.50;;;-4.59;100.00
2214;BME280;1113;42.018;23.986;2023-02-15T06:25:29;93917.22;;;-4.42;100.00
2214;BME280;1113;42.018;23.986;2023-02-15T06:27:56;93917.81;;;-4.40;100.00
2214;BME280;1113;42.018;23.986;2023-02-15T06:30:23;93920.97;;;-4.31;100.00
2214;BME280;1113;42.018;23.986;2023-02-15T06:32:50;93917.53;;;-4.24;100.00
2214;BME280;1113;42.018;23.986;2023-02-15T06:35:18;93907.94;;;-4.14;100.00
2214;BME280;1113;42.018;23.986;2023-02-15T06:37:45;93915.16;;;-4.04;100.00
2214;BME280;1113;42.018;23.986;2023-02-15T06:40:13;93918.13;;;-3.94;100.00
2214;BME280;1113;42.018;23.986;2023-02-15T06:42:40;93914.09;;;-3.82;100.00
2214;BME280;1113;42.018;23.986;2023-02-15T06:45:08;93910.66;;;-3.67;100.00
2214;BME280;1113;42.018;23.986;2023-02-15T06:47:35;93920.66;;;-3.53;100.00
2214;BME280;1113;42.018;23.986;2023-02-15T06:50:02;93914.50;;;-3.37;100.00
2214;BME280;1113;42.018;23.986;2023-02-15T06:52:32;93920.13;;;-3.28;100.00
2214;BME280;1113;42.018;23.986;2023-02-15T06:54:58;93911.81;;;-3.22;100.00
2214;BME280;1113;42.018;23.986;2023-02-15T06:57:25;93901.00;;;-3.03;100.00
2214;BME280;1113;42.018;23.986;2023-02-15T06:59:52;93889.94;;;-2.89;100.00
2214;BME280;1113;42.018;23.986;2023-02-15T07:02:19;93895.19;;;-2.83;100.00
2214;BME280;1113;42.018;23.986;2023-02-15T07:04:46;93889.75;;;-2.67;100.00
2214;BME280;1113;42.018;23.986;2023-02-15T07:07:12;93892.28;;;-2.47;100.00
2214;BME280;1113;42.018;23.986;2023-02-15T07:09:40;93904.31;;;-2.23;100.00
2214;BME280;1113;42.018;23.986;2023-02-15T07:12:08;93901.00;;;-2.17;100.00
2214;BME280;1113;42.018;23.986;2023-02-15T07:15:04;93905.44;;;-1.93;100.00
2214;BME280;1113;42.018;23.986;2023-02-15T07:17:33;93905.03;;;-1.83;100.00
2214;BME280;1113;42.018;23.986;2023-02-15T07:19:59;93900.50;;;-1.68;100.00
2214;BME280;1113;42.018;23.986;2023-02-15T07:22:26;93901.03;;;-1.59;100.00
2214;BME280;1113;42.018;23.986;2023-02-15T07:24:55;93903.53;;;-1.39;100.00
2214;BME280;1113;42.018;23.986;2023-02-15T07:27:22;93908.72;;;-1.28;100.00
2214;BME280;1113;42.018;23.986;2023-02-15T07:29:49;93901.06;;;-1.14;100.00
2214;BME280;1113;42.018;23.986;2023-02-15T07:32:15;93902.97;;;-1.03;100.00
2214;BME280;1113;42.018;23.986;2023-02-15T07:34:42;93894.50;;;-0.90;100.00
2214;BME280;1113;42.018;23.986;2023-02-15T07:37:09;93899.28;;;-0.76;100.00
2214;BME280;1113;42.018;23.986;2023-02-15T07:39:36;93891.22;;;-0.66;100.00
2214;BME280;1113;42.018;23.986;2023-02-15T07:42:04;93902.22;;;-0.54;100.00
2214;BME280;1113;42.018;23.986;2023-02-15T07:44:31;93900.97;;;-0.38;100.00
2214;BME280;1113;42.018;23.986;2023-02-15T07:46:58;93910.56;;;-0.22;100.00
2214;BME280;1113;42.018;23.986;2023-02-15T07:49:24;93914.66;;;0.04;100.00
2214;BME280;1113;42.018;23.986;2023-02-15T07:51:51;93908.81;;;0.22;100.00
2214;BME280;1113;42.018;23.986;2023-02-15T07:54:18;93900.19;;;0.41;100.00
2214;BME280;1113;42.018;23.986;2023-02-15T07:56:45;93904.19;;;0.49;100.00
2214;BME280;1113;42.018;23.986;2023-02-15T07:59:14;93908.84;;;0.70;100.00
2214;BME280;1113;42.018;23.986;2023-02-15T08:01:40;93902.31;;;0.92;100.00
2214;BME280;1113;42.018;23.986;2023-02-15T08:04:08;93890.00;;;1.08;100.00
2214;BME280;1113;42.018;23.986;2023-02-15T08:06:37;93889.94;;;1.26;100.00
2214;BME280;1113;42.018;23.986;2023-02-15T08:09:04;93887.31;;;1.56;100.00
2214;BME280;1113;42.018;23.986;2023-02-15T08:11:32;93888.25;;;1.73;100.00
2214;BME280;1113;42.018;23.986;2023-02-15T08:14:03;93885.47;;;1.86;100.00
2214;BME280;1113;42.018;23.986;2023-02-15T08:16:47;93882.94;;;1.98;100.00
2214;BME280;1113;42.018;23.986;2023-02-15T08:19:22;93883.59;;;2.17;100.00
2214;BME280;1113;42.018;23.986;2023-02-15T08:21:51;93876.69;;;2.41;100.00
2214;BME280;1113;42.018;23.986;2023-02-15T08:24:21;93879.97;;;2.53;100.00
2214;BME280;1113;42.018;23.986;2023-02-15T08:26:48;93874.72;;;2.71;100.00
2214;BME280;1113;42.018;23.986;2023-02-15T08:29:17;93883.59;;;2.97;100.00
2214;BME280;1113;42.018;23.986;2023-02-15T08:31:45;93884.97;;;3.16;100.00
2214;BME280;1113;42.018;23.986;2023-02-15T08:34:16;93876.03;;;3.31;100.00
2214;BME280;1113;42.018;23.986;2023-02-15T08:36:44;93884.06;;;3.56;100.00
2214;BME280;1113;42.018;23.986;2023-02-15T08:39:12;93876.72;;;3.60;100.00
2214;BME280;1113;42.018;23.986;2023-02-15T08:41:41;93883.28;;;3.89;94.65
2214;BME280;1113;42.018;23.986;2023-02-15T08:44:08;93877.91;;;4.24;85.28
2214;BME280;1113;42.018;23.986;2023-02-15T08:46:37;93875.84;;;4.43;77.13
2214;BME280;1113;42.018;23.986;2023-02-15T08:49:04;93879.09;;;4.38;78.52
2214;BME280;1113;42.018;23.986;2023-02-15T08:51:34;93876.84;;;4.64;77.06
2214;BME280;1113;42.018;23.986;2023-02-15T08:54:03;93873.25;;;4.87;77.77
2214;BME280;1113;42.018;23.986;2023-02-15T08:56:33;93861.06;;;4.94;76.51
2214;BME280;1113;42.018;23.986;2023-02-15T08:59:00;93867.66;;;5.17;75.09
2214;BME280;1113;42.018;23.986;2023-02-15T09:01:32;93867.59;;;5.33;74.02
2214;BME280;1113;42.018;23.986;2023-02-15T09:04:01;93871.06;;;5.54;71.63
2214;BME280;1113;42.018;23.986;2023-02-15T09:06:29;93863.75;;;5.68;69.35
2214;BME280;1113;42.018;23.986;2023-02-15T09:08:58;93865.69;;;5.88;68.54
2214;BME280;1113;42.018;23.986;2023-02-15T09:11:26;93863.22;;;5.98;68.31
2214;BME280;1113;42.018;23.986;2023-02-15T09:13:55;93855.84;;;6.07;68.44
2214;BME280;1113;42.018;23.986;2023-02-15T09:16:23;93849.81;;;6.28;66.51
2214;BME280;1113;42.018;23.986;2023-02-15T09:18:51;93848.59;;;6.46;65.09
2214;BME280;1113;42.018;23.986;2023-02-15T09:21:20;93849.59;;;6.35;64.32
2214;BME280;1113;42.018;23.986;2023-02-15T09:23:49;93842.81;;;6.18;65.58
2214;BME280;1113;42.018;23.986;2023-02-15T09:26:19;93844.69;;;6.28;65.22
2214;BME280;1113;42.018;23.986;2023-02-15T09:28:46;93843.47;;;6.46;65.02
2214;BME280;1113;42.018;23.986;2023-02-15T09:31:15;93837.88;;;6.64;65.78
2214;BME280;1113;42.018;23.986;2023-02-15T09:33:44;93842.94;;;6.44;63.94
2214;BME280;1113;42.018;23.986;2023-02-15T09:36:16;93839.44;;;6.75;64.74
2214;BME280;1113;42.018;23.986;2023-02-15T09:38:43;93843.13;;;7.10;62.07
2214;BME280;1113;42.018;23.986;2023-02-15T09:41:22;93842.63;;;7.28;61.18
2214;BME280;1113;42.018;23.986;2023-02-15T09:44:00;93836.22;;;7.20;60.37
2214;BME280;1113;42.018;23.986;2023-02-15T09:46:47;93831.13;;;7.36;60.48
2214;BME280;1113;42.018;23.986;2023-02-15T09:49:25;93835.72;;;7.64;60.66
2214;BME280;1113;42.018;23.986;2023-02-15T09:52:17;93834.66;;;7.96;57.63
2214;BME280;1113;42.018;23.986;2023-02-15T09:54:58;93825.44;;;7.89;58.07
2214;BME280;1113;42.018;23.986;2023-02-15T09:57:35;93827.16;;;8.14;58.02
2214;BME280;1113;42.018;23.986;2023-02-15T10:00:09;93825.88;;;8.17;56.88
2214;BME280;1113;42.018;23.986;2023-02-15T10:02:49;93820.97;;;8.26;57.31
2214;BME280;1113;42.018;23.986;2023-02-15T10:05:27;93817.59;;;8.30;56.29
2214;BME280;1113;42.018;23.986;2023-02-15T10:08:27;93821.47;;;8.43;54.90
2214;BME280;1113;42.018;23.986;2023-02-15T10:11:04;93813.53;;;8.34;56.26
2214;BME280;1113;42.018;23.986;2023-02-15T10:13:59;93812.44;;;8.50;54.83
2214;BME280;1113;42.018;23.986;2023-02-15T10:16:34;93813.09;;;8.71;54.29
2214;BME280;1113;42.018;23.986;2023-02-15T10:19:12;93807.38;;;8.84;53.47
2214;BME280;1113;42.018;23.986;2023-02-15T10:21:51;93789.59;;;8.83;54.19
2214;BME280;1113;42.018;23.986;2023-02-15T10:24:45;93788.91;;;9.11;54.28
2214;BME280;1113;42.018;23.986;2023-02-15T10:27:19;93795.03;;;9.21;53.11
2214;BME280;1113;42.018;23.986;2023-02-15T10:29:56;93790.28;;;9.38;52.57
2214;BME280;1113;42.018;23.986;2023-02-15T10:32:32;93785.53;;;9.50;51.64
2214;BME280;1113;42.018;23.986;2023-02-15T10:35:08;93785.63;;;9.40;51.15
2214;BME280;1113;42.018;23.986;2023-02-15T10:40:54;93777.69;;;9.65;51.09
2214;BME280;1113;42.018;23.986;2023-02-15T10:43:52;93775.91;;;9.90;50.59
2214;BME280;1113;42.018;23.986;2023-02-15T10:46:37;93771.53;;;9.90;49.92
2214;BME280;1113;42.018;23.986;2023-02-15T10:49:22;93775.38;;;9.93;49.88
2214;BME280;1113;42.018;23.986;2023-02-15T10:52:00;93769.13;;;9.70;48.87
2214;BME280;1113;42.018;23.986;2023-02-15T10:54:37;93764.78;;;9.65;49.57
2214;BME280;1113;42.018;23.986;2023-02-15T10:57:15;93766.84;;;9.92;48.76
2214;BME280;1113;42.018;23.986;2023-02-15T10:59:57;93764.56;;;9.62;49.40
2214;BME280;1113;42.018;23.986;2023-02-15T11:02:37;93759.50;;;9.52;50.57
2214;BME280;1113;42.018;23.986;2023-02-15T11:05:24;93760.28;;;10.05;49.29
2214;BME280;1113;42.018;23.986;2023-02-15T11:07:56;93760.72;;;10.12;48.04
2214;BME280;1113;42.018;23.986;2023-02-15T11:10:29;93758.63;;;10.14;48.29
2214;BME280;1113;42.018;23.986;2023-02-15T11:12:58;93755.78;;;9.92;48.83
2214;BME280;1113;42.018;23.986;2023-02-15T11:15:31;93751.97;;;10.08;48.37
2214;BME280;1113;42.018;23.986;2023-02-15T11:18:06;93755.22;;;10.19;47.97
2214;BME280;1113;42.018;23.986;2023-02-15T11:20:38;93762.72;;;10.39;46.37
2214;BME280;1113;42.018;23.986;2023-02-15T11:23:12;93758.88;;;10.60;47.15
2214;BME280;1113;42.018;23.986;2023-02-15T11:25:43;93754.25;;;10.76;45.66
2214;BME280;1113;42.018;23.986;2023-02-15T11:28:19;93741.97;;;10.49;45.79
2214;BME280;1113;42.018;23.986;2023-02-15T11:30:51;93738.00;;;10.57;46.84
2214;BME280;1113;42.018;23.986;2023-02-15T11:33:24;93736.13;;;10.81;45.86
2214;BME280;1113;42.018;23.986;2023-02-15T11:35:57;93733.16;;;10.88;46.05
2214;BME280;1113;42.018;23.986;2023-02-15T11:38:28;93735.69;;;11.12;45.38
2214;BME280;1113;42.018;23.986;2023-02-15T11:41:00;93731.56;;;11.11;43.52
2214;BME280;1113;42.018;23.986;2023-02-15T11:43:35;93722.00;;;10.92;43.80
2214;BME280;1113;42.018;23.986;2023-02-15T11:46:04;93721.66;;;10.99;43.63
2214;BME280;1113;42.018;23.986;2023-02-15T11:48:32;93721.88;;;11.02;43.18
2214;BME280;1113;42.018;23.986;2023-02-15T11:51:01;93715.66;;;11.03;43.45
2214;BME280;1113;42.018;23.986;2023-02-15T11:53:32;93712.38;;;10.98;43.99
2214;BME280;1113;42.018;23.986;2023-02-15T11:56:00;93709.84;;;11.12;43.65
2214;BME280;1113;42.018;23.986;2023-02-15T11:58:32;93701.88;;;11.08;42.79
2214;BME280;1113;42.018;23.986;2023-02-15T12:01:04;93701.31;;;11.11;42.98
2214;BME280;1113;42.018;23.986;2023-02-15T12:03:43;93698.19;;;11.28;42.70
2214;BME280;1113;42.018;23.986;2023-02-15T12:06:18;93694.78;;;11.00;42.29
2214;BME280;1113;42.018;23.986;2023-02-15T12:08:53;93692.88;;;10.54;42.91
2214;BME280;1113;42.018;23.986;2023-02-15T12:11:26;93694.38;;;10.93;43.41
2214;BME280;1113;42.018;23.986;2023-02-15T12:13:56;93694.66;;;11.24;41.81
2214;BME280;1113;42.018;23.986;2023-02-15T12:16:23;93695.31;;;11.29;41.19
2214;BME280;1113;42.018;23.986;2023-02-15T12:18:52;93700.03;;;11.41;42.38
2214;BME280;1113;42.018;23.986;2023-02-15T12:21:27;93695.97;;;11.67;41.83
2214;BME280;1113;42.018;23.986;2023-02-15T12:23:58;93696.22;;;11.98;39.84
2214;BME280;1113;42.018;23.986;2023-02-15T12:26:37;93688.88;;;11.73;41.25
2214;BME280;1113;42.018;23.986;2023-02-15T12:29:30;93689.69;;;12.01;40.46
2214;BME280;1113;42.018;23.986;2023-02-15T12:31:58;93693.81;;;12.02;40.33
2214;BME280;1113;42.018;23.986;2023-02-15T12:34:35;93699.19;;;12.06;40.19
2214;BME280;1113;42.018;23.986;2023-02-15T12:37:09;93685.00;;;12.03;39.55
2214;BME280;1113;42.018;23.986;2023-02-15T12:39:51;93679.81;;;11.89;39.33
2214;BME280;1113;42.018;23.986;2023-02-15T12:42:18;93682.50;;;12.12;39.24
2214;BME280;1113;42.018;23.986;2023-02-15T12:44:58;93683.16;;;11.90;39.82
2214;BME280;1113;42.018;23.986;2023-02-15T12:47:25;93681.16;;;12.00;39.77
2214;BME280;1113;42.018;23.986;2023-02-15T12:50:12;93688.72;;;12.11;38.18
2214;BME280;1113;42.018;23.986;2023-02-15T12:52:44;93684.69;;;12.18;38.65
2214;BME280;1113;42.018;23.986;2023-02-15T12:55:19;93680.16;;;12.24;38.89
2214;BME280;1113;42.018;23.986;2023-02-15T12:57:47;93686.31;;;12.14;36.78
2214;BME280;1113;42.018;23.986;2023-02-15T13:00:26;93686.59;;;12.13;37.86
2214;BME280;1113;42.018;23.986;2023-02-15T13:02:55;93683.56;;;11.97;37.54
2214;BME280;1113;42.018;23.986;2023-02-15T13:05:31;93678.25;;;12.16;38.29
2214;BME280;1113;42.018;23.986;2023-02-15T13:08:00;93681.78;;;12.33;39.42
2214;BME280;1113;42.018;23.986;2023-02-15T13:10:29;93672.59;;;12.63;38.47
2214;BME280;1113;42.018;23.986;2023-02-15T13:12:58;93675.06;;;12.32;40.15
2214;BME280;1113;42.018;23.986;2023-02-15T13:15:32;93678.63;;;12.73;41.74
2214;BME280;1113;42.018;23.986;2023-02-15T13:18:01;93685.16;;;12.92;38.29
2214;BME280;1113;42.018;23.986;2023-02-15T13:20:31;93685.44;;;12.69;37.54
2214;BME280;1113;42.018;23.986;2023-02-15T13:23:01;93678.41;;;13.05;38.58
2214;BME280;1113;42.018;23.986;2023-02-15T13:25:34;93680.13;;;12.96;38.21
2214;BME280;1113;42.018;23.986;2023-02-15T13:28:11;93680.44;;;12.94;38.59
2214;BME280;1113;42.018;23.986;2023-02-15T13:30:43;93683.91;;;12.68;36.74
2214;BME280;1113;42.018;23.986;2023-02-15T13:33:16;93681.84;;;12.78;37.54
2214;BME280;1113;42.018;23.986;2023-02-15T13:35:50;93682.09;;;12.68;39.02